Harmony Corners, New York
Current Conditions -  °F | °C
As of 2:51 AM on Saturday 01 Nov 2014 (Local Time) from KALB Reporting Station
Broken Clouds Broken Clouds  
Wind Chill:   Ceiling: 5000
Heat Index:   Visibility: 10mi
Dew Point:   Wind: 6mph
Humidity: 65%   Direction: 20°NNE
Pressure: 29.96"   Gusts: NA
Location:  43.002°N, 73.8759°W
Report Text: KALB 010651Z 02005KT 10SM BKN050 06/00 A2996 RMK AO2 SLP146 T00610000
Loading
Personal Weather Stations






























Interactive Weather Map
Tropical Storm Tracking
New forecast layout! Learn more

10-Day Weather Forecast

Advertisements
Track Severe Weather on mobile